Time;durP1;ratioP1;P1;durP2;ratioP2;P2;SDS_P1;SDS_P2;PMS_P1;PMS_P2;Temp;Humidity;BMP_temperature;BMP_pressure;BME280_temperature;BME280_humidity;BME280_pressure;Samples;Min_cycle;Max_cycle;Signal;HPM_P1;HPM_P2
2023/03/17 00:00:29;;;;;;;2.37;2.17;;;12.40;99.90;;;;;;5073356;28;20239;-73
2023/03/17 00:02:58;;;;;;;2.93;2.30;;;12.40;99.90;;;;;;5072576;28;20201;-73
2023/03/17 00:05:38;;;;;;;3.67;2.70;;;12.40;1.00;;;;;;5073252;28;20210;-73
2023/03/17 00:08:12;;;;;;;3.00;2.70;;;12.40;1.00;;;;;;5073154;28;20194;-73
2023/03/17 00:10:37;;;;;;;2.60;2.40;;;12.40;1.00;;;;;;5073410;28;20177;-73
2023/03/17 00:13:05;;;;;;;2.43;2.23;;;12.30;1.00;;;;;;5073133;28;20173;-72
2023/03/17 00:15:31;;;;;;;3.30;2.70;;;12.30;99.90;;;;;;5072812;28;20221;-73
2023/03/17 00:17:57;;;;;;;3.97;2.77;;;12.20;80.00;;;;;;5073396;28;20176;-73
2023/03/17 00:20:28;;;;;;;5.33;2.40;;;12.20;99.90;;;;;;5073444;28;20171;-73
2023/03/17 00:22:59;;;;;;;2.63;2.17;;;12.20;99.90;;;;;;5055415;28;20726;-72
2023/03/17 00:25:28;;;;;;;4.53;2.20;;;12.10;1.00;;;;;;5073187;28;20200;-72
2023/03/17 00:27:55;;;;;;;2.47;2.17;;;12.10;1.00;;;;;;5073300;28;20218;-73
2023/03/17 00:30:22;;;;;;;3.83;2.30;;;12.10;1.00;;;;;;5055060;28;20545;-73
2023/03/17 00:32:50;;;;;;;3.83;2.70;;;12.20;1.00;;;;;;5073092;28;20183;-74
2023/03/17 00:35:22;;;;;;;4.80;2.37;;;12.00;4.10;;;;;;5072799;28;20172;-73
2023/03/17 00:37:51;;;;;;;2.80;2.60;;;12.10;1.00;;;;;;5071963;28;20203;-72
2023/03/17 00:40:28;;;;;;;3.47;2.50;;;12.10;1.00;;;;;;5073111;28;20248;-72
2023/03/17 00:42:53;;;;;;;3.03;2.03;;;12.20;1.00;;;;;;5055449;28;20188;-73
2023/03/17 00:45:22;;;;;;;6.40;2.90;;;12.10;1.00;;;;;;5073150;28;20281;-72
2023/03/17 00:47:49;;;;;;;3.33;2.30;;;12.10;99.90;;;;;;5073006;28;20201;-72
2023/03/17 00:50:20;;;;;;;3.83;2.70;;;12.10;1.00;;;;;;5072661;28;20169;-72
2023/03/17 00:52:47;;;;;;;3.10;2.77;;;12.20;1.00;;;;;;5073137;28;20172;-72
2023/03/17 00:55:14;;;;;;;3.47;2.67;;;12.20;1.00;;;;;;5072872;28;20173;-72
2023/03/17 00:57:41;;;;;;;3.97;2.53;;;12.10;1.00;;;;;;5072781;28;20245;-72
2023/03/17 01:00:23;;;;;;;3.47;2.77;;;12.10;99.90;;;;;;5073005;28;20179;-73
2023/03/17 01:02:50;;;;;;;5.93;2.50;;;12.10;1.00;;;;;;5072972;28;20184;-73
2023/03/17 01:05:16;;;;;;;3.87;2.70;;;12.10;99.90;;;;;;5072557;28;20655;-72
2023/03/17 01:07:51;;;;;;;4.17;2.90;;;12.10;1.00;;;;;;5072769;28;20164;-72
2023/03/17 01:10:22;;;;;;;2.43;2.23;;;12.10;99.90;;;;;;5071544;28;20179;-72
2023/03/17 01:12:49;;;;;;;2.77;2.57;;;12.10;1.00;;;;;;5072547;28;20175;-72
2023/03/17 01:15:16;;;;;;;2.33;2.13;;;12.10;1.00;;;;;;5072510;28;20271;-72
2023/03/17 01:17:43;;;;;;;2.70;2.00;;;12.10;1.00;;;;;;5072745;28;20165;-72
2023/03/17 01:20:15;;;;;;;3.13;2.17;;;12.10;99.90;;;;;;5072362;28;20191;-72
2023/03/17 01:22:41;;;;;;;4.73;2.30;;;12.10;1.00;;;;;;5072626;28;20256;-73
2023/03/17 01:25:09;;;;;;;2.33;2.10;;;12.10;1.00;;;;;;5072568;28;20313;-72
2023/03/17 01:27:35;;;;;;;4.13;2.10;;;12.10;1.00;;;;;;5074185;28;20287;-73
2023/03/17 01:30:02;;;;;;;3.13;2.40;;;12.10;99.90;;;;;;5076562;28;20164;-73
2023/03/17 01:32:27;;;;;;;5.17;2.40;;;12.00;99.90;;;;;;5076261;28;20169;-73
2023/03/17 01:34:53;;;;;;;2.50;2.30;;;12.10;99.90;;;;;;5075814;28;20659;-72
2023/03/17 01:37:20;;;;;;;3.93;2.70;;;12.10;99.90;;;;;;5076117;28;20173;-72
2023/03/17 01:39:46;;;;;;;3.77;2.30;;;12.10;99.90;;;;;;5076046;28;20168;-71
2023/03/17 01:42:12;;;;;;;4.07;2.10;;;12.10;99.90;;;;;;5076213;28;20169;-71
2023/03/17 01:44:59;;;;;;;2.30;1.83;;;12.10;1.00;;;;;;5075892;28;20238;-72
2023/03/17 01:47:29;;;;;;;4.47;2.50;;;12.10;1.00;;;;;;5074728;28;20172;-73
2023/03/17 01:49:56;;;;;;;2.77;2.57;;;12.10;1.00;;;;;;5075832;28;20659;-72
2023/03/17 01:52:22;;;;;;;3.23;2.07;;;12.10;99.90;;;;;;5075630;28;20183;-73
2023/03/17 01:54:59;;;;;;;3.17;2.07;;;12.00;1.00;;;;;;5075703;28;20715;-73
2023/03/17 01:57:35;;;;;;;2.27;2.07;;;12.00;1.00;;;;;;5057737;28;20505;-72
2023/03/17 02:00:04;;;;;;;4.37;1.90;;;12.00;1.00;;;;;;5075690;28;20506;-72
2023/03/17 02:02:34;;;;;;;2.37;2.13;;;12.00;1.00;;;;;;5075049;28;20184;-72
2023/03/17 02:05:02;;;;;;;2.93;2.10;;;12.00;99.90;;;;;;5075297;28;20537;-72
2023/03/17 02:07:28;;;;;;;2.30;1.73;;;12.00;1.00;;;;;;5075471;28;20517;-72
2023/03/17 02:09:55;;;;;;;2.57;1.93;;;12.00;1.00;;;;;;5075436;28;20184;-72
2023/03/17 02:12:24;;;;;;;2.80;2.30;;;12.00;1.00;;;;;;5075571;28;20161;-72
2023/03/17 02:14:51;;;;;;;4.40;1.97;;;11.90;1.00;;;;;;5075180;28;20212;-72
2023/03/17 02:17:18;;;;;;;2.13;1.93;;;11.90;1.00;;;;;;5074993;28;20184;-72
2023/03/17 02:19:44;;;;;;;2.33;2.13;;;11.90;1.00;;;;;;5075439;28;20164;-72
2023/03/17 02:22:10;;;;;;;2.67;2.30;;;11.90;99.90;;;;;;5075292;28;20172;-72
2023/03/17 02:24:43;;;;;;;2.20;1.80;;;11.80;99.90;;;;;;5075010;28;20243;-72
2023/03/17 02:27:17;;;;;;;3.37;2.20;;;11.80;99.90;;;;;;5075319;28;20168;-72
2023/03/17 02:29:45;;;;;;;3.03;2.07;;;11.80;1.00;;;;;;5075398;28;20164;-73
2023/03/17 02:32:11;;;;;;;3.20;2.10;;;11.80;1.00;;;;;;5074765;28;20230;-72
2023/03/17 02:34:37;;;;;;;3.40;2.10;;;11.80;1.00;;;;;;5075076;28;20655;-73
2023/03/17 02:37:04;;;;;;;2.00;1.90;;;11.80;1.00;;;;;;5075022;28;20168;-72
2023/03/17 02:39:30;;;;;;;2.30;2.10;;;11.80;1.00;;;;;;5073921;28;20161;-72
2023/03/17 02:41:57;;;;;;;2.90;2.07;;;11.80;99.90;;;;;;5075224;28;20165;-72
2023/03/17 02:44:22;;;;;;;1.90;1.80;;;11.80;1.00;;;;;;5074585;28;20212;-72
2023/03/17 02:46:48;;;;;;;2.10;2.00;;;11.70;92.10;;;;;;5074547;28;20223;-72
2023/03/17 02:49:14;;;;;;;2.00;1.80;;;11.70;1.00;;;;;;5074743;28;20184;-72
2023/03/17 02:51:40;;;;;;;3.63;2.10;;;11.70;1.00;;;;;;5074812;28;20175;-72
2023/03/17 02:54:06;;;;;;;3.47;2.10;;;11.80;1.00;;;;;;5056798;28;20695;-72
2023/03/17 02:56:32;;;;;;;4.53;2.33;;;11.70;99.90;;;;;;5074851;28;20183;-72
2023/03/17 02:58:57;;;;;;;3.37;2.40;;;11.70;99.90;;;;;;5074624;28;20173;-72
2023/03/17 03:01:25;;;;;;;2.73;2.53;;;11.70;99.90;;;;;;5074137;28;20203;-73
2023/03/17 03:03:51;;;;;;;3.00;2.20;;;11.70;1.00;;;;;;5074042;28;20258;-72
2023/03/17 03:06:17;;;;;;;2.80;2.20;;;11.70;1.00;;;;;;5074441;28;20198;-73
2023/03/17 03:08:43;;;;;;;2.77;2.10;;;11.60;1.00;;;;;;5074178;28;20230;-72
2023/03/17 03:11:09;;;;;;;2.20;2.00;;;11.60;1.00;;;;;;5074380;28;20194;-72
2023/03/17 03:13:36;;;;;;;3.10;2.00;;;11.60;1.00;;;;;;5074013;28;20173;-72
2023/03/17 03:16:03;;;;;;;3.53;1.80;;;11.60;99.90;;;;;;5073574;28;20212;-72
2023/03/17 03:18:29;;;;;;;2.13;2.03;;;11.60;99.90;;;;;;5074142;28;20157;-72
2023/03/17 03:20:55;;;;;;;2.97;2.37;;;11.60;8.50;;;;;;5074009;28;20226;-72
2023/03/17 03:23:21;;;;;;;4.93;2.73;;;11.60;99.90;;;;;;5073887;28;20197;-71
2023/03/17 03:25:50;;;;;;;2.67;2.00;;;11.60;1.00;;;;;;5073931;28;20662;-72
2023/03/17 03:28:15;;;;;;;3.80;2.10;;;11.60;99.90;;;;;;5073863;28;20700;-72
2023/03/17 03:30:43;;;;;;;2.37;2.17;;;11.60;99.90;;;;;;5073628;28;20200;-73
2023/03/17 03:33:10;;;;;;;2.23;1.87;;;11.60;99.90;;;;;;5073840;28;20251;-72
2023/03/17 03:35:39;;;;;;;2.57;1.87;;;11.70;1.00;;;;;;5073612;28;20171;-72
2023/03/17 03:38:06;;;;;;;4.13;2.30;;;11.60;99.90;;;;;;5073762;28;20171;-72
2023/03/17 03:40:35;;;;;;;3.97;2.00;;;11.70;99.90;;;;;;5073293;28;20172;-71
2023/03/17 03:43:01;;;;;;;3.53;2.10;;;11.70;1.00;;;;;;5073164;28;20176;-71
2023/03/17 03:45:27;;;;;;;2.73;2.10;;;11.70;99.90;;;;;;5073144;28;20175;-72
2023/03/17 03:47:55;;;;;;;2.03;1.80;;;11.70;96.80;;;;;;5073537;28;20179;-73
2023/03/17 03:50:22;;;;;;;2.50;2.30;;;11.70;99.90;;;;;;5072993;28;20251;-72
2023/03/17 03:52:47;;;;;;;4.00;2.10;;;11.70;1.00;;;;;;5073309;28;20355;-72
2023/03/17 03:55:15;;;;;;;2.03;1.73;;;11.70;99.90;;;;;;5073192;28;20200;-72
2023/03/17 03:57:41;;;;;;;1.93;1.70;;;11.70;1.00;;;;;;5073499;28;20172;-72
2023/03/17 04:00:08;;;;;;;2.87;2.10;;;11.70;99.90;;;;;;5073108;28;20173;-72
2023/03/17 04:02:34;;;;;;;2.20;2.00;;;11.70;99.90;;;;;;5073053;28;20199;-72
2023/03/17 04:05:00;;;;;;;3.10;2.10;;;11.70;99.90;;;;;;5073190;28;20325;-72
2023/03/17 04:07:26;;;;;;;4.33;2.33;;;11.70;99.90;;;;;;5073229;28;20168;-72
2023/03/17 04:09:54;;;;;;;3.87;2.30;;;11.70;99.90;;;;;;5073020;28;20172;-72
2023/03/17 04:12:20;;;;;;;3.53;2.20;;;11.80;1.00;;;;;;5073183;28;20169;-71
2023/03/17 04:14:45;;;;;;;3.63;2.47;;;11.70;31.80;;;;;;5072479;28;20224;-73
2023/03/17 04:17:12;;;;;;;3.43;2.40;;;11.70;99.90;;;;;;5072953;28;20234;-72
2023/03/17 04:19:40;;;;;;;4.20;2.80;;;11.70;1.00;;;;;;5072468;28;20226;-72
2023/03/17 04:22:07;;;;;;;3.90;2.60;;;11.70;1.00;;;;;;5072973;28;20173;-72
2023/03/17 04:24:37;;;;;;;2.60;2.40;;;11.70;99.90;;;;;;5072583;28;20262;-72
2023/03/17 04:27:02;;;;;;;4.83;2.70;;;11.70;1.00;;;;;;5071763;28;20204;-72
2023/03/17 04:29:29;;;;;;;3.63;2.60;;;11.70;1.00;;;;;;5072873;28;20685;-72
2023/03/17 04:31:57;;;;;;;8.43;3.10;;;11.70;1.00;;;;;;5072910;28;20169;-72
2023/03/17 04:34:23;;;;;;;3.50;2.80;;;11.70;1.00;;;;;;5072568;28;20222;-72
2023/03/17 04:36:52;;;;;;;3.93;2.67;;;11.70;1.00;;;;;;5072590;28;20565;-72
2023/03/17 04:39:17;;;;;;;5.43;2.50;;;11.70;1.00;;;;;;5072840;28;20206;-72
2023/03/17 04:41:49;;;;;;;3.20;2.30;;;11.70;1.00;;;;;;5072181;28;20247;-71
2023/03/17 04:44:15;;;;;;;3.10;2.50;;;11.60;1.00;;;;;;5072532;28;20204;-73
2023/03/17 04:46:40;;;;;;;3.27;2.37;;;11.60;1.00;;;;;;5072483;28;20493;-73
2023/03/17 04:49:07;;;;;;;7.43;2.80;;;11.60;1.00;;;;;;5070805;28;20536;-72
2023/03/17 04:51:34;;;;;;;4.43;2.60;;;11.50;1.00;;;;;;5054586;28;20631;-72
2023/03/17 04:54:00;;;;;;;3.83;2.60;;;11.50;99.90;;;;;;5072107;28;20176;-73
2023/03/17 04:56:26;;;;;;;3.00;2.47;;;11.40;1.00;;;;;;5072394;28;20161;-72
2023/03/17 04:58:52;;;;;;;6.17;2.70;;;11.40;1.00;;;;;;5072260;28;20695;-71
2023/03/17 05:01:17;;;;;;;5.07;2.47;;;11.40;1.00;;;;;;5072229;28;20318;-71
2023/03/17 05:03:44;;;;;;;2.97;2.47;;;11.30;1.00;;;;;;5057539;28;20658;-73
2023/03/17 05:06:10;;;;;;;5.23;2.70;;;11.30;1.00;;;;;;5058316;28;20519;-72
2023/03/17 05:08:35;;;;;;;5.30;2.37;;;11.30;1.00;;;;;;5075725;28;20175;-73
2023/03/17 05:11:01;;;;;;;4.27;2.43;;;11.30;1.00;;;;;;5057842;28;20259;-73
2023/03/17 05:13:29;;;;;;;3.10;2.53;;;11.30;1.00;;;;;;5057627;28;20271;-73
2023/03/17 05:15:56;;;;;;;3.43;2.33;;;11.30;1.00;;;;;;5075651;28;20265;-72
2023/03/17 05:18:23;;;;;;;3.43;2.40;;;11.30;1.00;;;;;;5075814;28;20161;-72
2023/03/17 05:20:49;;;;;;;4.43;2.80;;;11.20;1.00;;;;;;5075687;28;20263;-72
2023/03/17 05:23:15;;;;;;;2.50;2.27;;;11.20;1.00;;;;;;5075405;28;20193;-72
2023/03/17 05:25:41;;;;;;;4.40;2.20;;;11.20;1.00;;;;;;5075469;28;20176;-72
2023/03/17 05:28:08;;;;;;;3.47;2.10;;;11.20;1.00;;;;;;5075968;28;20166;-72
2023/03/17 05:30:37;;;;;;;4.57;2.47;;;11.20;1.00;;;;;;5075437;28;20165;-72
2023/03/17 05:33:06;;;;;;;5.67;2.80;;;11.30;1.00;;;;;;5075546;28;20165;-72
2023/03/17 05:35:32;;;;;;;2.70;2.17;;;11.20;45.30;;;;;;5075223;28;20654;-72
2023/03/17 05:38:18;;;;;;;4.07;2.13;;;11.20;1.00;;;;;;5075767;28;20172;-72
2023/03/17 05:40:47;;;;;;;4.53;2.30;;;11.20;8.40;;;;;;5075154;28;20169;-72
2023/03/17 05:43:18;;;;;;;5.20;2.50;;;11.20;1.00;;;;;;5075334;28;20210;-72
2023/03/17 05:45:46;;;;;;;5.60;2.50;;;11.20;23.20;;;;;;5056940;28;20172;-72
2023/03/17 05:48:12;;;;;;;3.27;2.57;;;11.20;66.80;;;;;;5075529;28;20168;-73
2023/03/17 05:50:38;;;;;;;3.30;2.70;;;11.20;21.50;;;;;;5057150;28;20173;-73
2023/03/17 05:53:05;;;;;;;3.70;2.53;;;11.20;11.60;;;;;;5074599;28;20330;-72
2023/03/17 05:55:30;;;;;;;4.17;2.80;;;11.20;40.80;;;;;;5056846;28;20260;-72
2023/03/17 05:57:56;;;;;;;3.50;2.63;;;11.30;99.90;;;;;;5057327;28;20657;-72
2023/03/17 06:00:22;;;;;;;3.87;2.90;;;11.30;11.30;;;;;;5075016;28;20247;-72
2023/03/17 06:02:48;;;;;;;6.27;2.70;;;11.30;1.00;;;;;;5074822;28;20193;-72
2023/03/17 06:05:13;;;;;;;4.57;2.70;;;11.30;99.90;;;;;;5074561;28;20265;-72
2023/03/17 06:07:40;;;;;;;5.93;3.30;;;11.30;16.80;;;;;;5075117;28;20503;-73
2023/03/17 06:10:07;;;;;;;4.90;3.00;;;11.30;38.60;;;;;;5074051;28;20165;-73
2023/03/17 06:12:32;;;;;;;8.57;3.40;;;11.30;50.80;;;;;;5074146;28;20184;-73
2023/03/17 06:14:58;;;;;;;9.50;3.67;;;11.30;99.90;;;;;;5074644;28;20762;-73
2023/03/17 06:17:24;;;;;;;5.80;3.50;;;11.30;99.90;;;;;;5074813;28;20169;-73
2023/03/17 06:19:52;;;;;;;8.17;3.47;;;11.30;89.30;;;;;;5056276;28;20242;-73
2023/03/17 06:22:18;;;;;;;7.00;3.70;;;11.30;59.10;;;;;;5056456;28;20173;-73
2023/03/17 06:24:44;;;;;;;6.90;3.33;;;11.40;99.90;;;;;;5073599;28;20249;-73
2023/03/17 06:27:09;;;;;;;7.67;4.10;;;11.40;45.20;;;;;;5074351;28;20172;-73
2023/03/17 06:29:36;;;;;;;6.40;3.20;;;11.40;1.00;;;;;;5073770;28;20616;-73
2023/03/17 06:32:03;;;;;;;9.67;3.80;;;11.50;1.00;;;;;;5074321;28;20176;-72
2023/03/17 06:34:29;;;;;;;8.40;3.30;;;11.50;1.00;;;;;;5074199;28;20266;-73
2023/03/17 06:36:58;;;;;;;5.80;3.17;;;11.60;1.00;;;;;;5073903;28;20181;-73
2023/03/17 06:39:24;;;;;;;3.73;2.90;;;11.60;1.00;;;;;;5073439;28;20176;-73
2023/03/17 06:41:51;;;;;;;5.17;3.13;;;11.60;1.00;;;;;;5072854;28;20179;-74
2023/03/17 06:44:16;;;;;;;5.47;3.30;;;11.70;1.00;;;;;;5074267;28;20561;-73
2023/03/17 06:46:42;;;;;;;4.37;3.30;;;11.80;1.00;;;;;;5073462;28;20169;-72
2023/03/17 06:49:12;;;;;;;7.33;3.37;;;11.80;1.00;;;;;;5073740;28;20180;-73
2023/03/17 06:51:38;;;;;;;7.07;3.47;;;11.90;99.90;;;;;;5073561;28;20165;-73
2023/03/17 06:54:04;;;;;;;5.37;3.40;;;12.00;99.90;;;;;;5073176;28;20181;-73
2023/03/17 06:56:29;;;;;;;8.03;3.50;;;12.00;99.90;;;;;;5072798;28;20596;-73
2023/03/17 06:58:55;;;;;;;6.63;3.10;;;12.10;99.90;;;;;;5073358;28;20191;-73
2023/03/17 07:01:21;;;;;;;5.60;2.97;;;12.00;29.60;;;;;;5073206;28;20647;-74
2023/03/17 07:03:46;;;;;;;4.10;2.97;;;12.10;94.80;;;;;;5072835;28;20212;-74
2023/03/17 07:06:13;;;;;;;4.67;2.97;;;12.20;1.00;;;;;;5072599;28;20205;-74
2023/03/17 07:08:40;;;;;;;4.07;3.20;;;12.20;1.00;;;;;;5054708;28;20185;-73
2023/03/17 07:11:06;;;;;;;5.37;3.27;;;12.30;1.00;;;;;;5073210;28;20169;-74
2023/03/17 07:13:34;;;;;;;5.43;3.20;;;12.40;1.00;;;;;;5072452;28;20326;-74
2023/03/17 07:16:03;;;;;;;8.20;4.03;;;12.60;99.90;;;;;;5070558;28;20341;-74
2023/03/17 07:18:30;;;;;;;7.33;3.10;;;12.70;55.10;;;;;;5071432;28;20199;-74
2023/03/17 07:20:57;;;;;;;6.00;2.93;;;12.80;1.00;;;;;;5071906;28;20204;-73
2023/03/17 07:23:23;;;;;;;6.70;3.37;;;12.80;99.90;;;;;;5072499;28;20207;-74
2023/03/17 07:25:49;;;;;;;8.33;3.20;;;13.00;1.00;;;;;;5071483;28;20192;-74
2023/03/17 07:28:18;;;;;;;3.40;2.90;;;13.10;99.90;;;;;;5072011;28;20165;-73
2023/03/17 07:30:45;;;;;;;5.13;3.43;;;13.30;99.90;;;;;;5072252;28;20180;-75
2023/03/17 07:33:16;;;;;;;5.57;2.80;;;13.50;99.90;;;;;;5069418;28;20550;-74
2023/03/17 07:35:42;;;;;;;4.30;2.57;;;13.80;99.90;;;;;;5071601;28;20226;-73
2023/03/17 07:38:08;;;;;;;9.27;2.93;;;14.00;99.90;;;;;;5072368;28;20662;-74
2023/03/17 07:40:35;;;;;;;6.13;3.40;;;14.20;1.00;;;;;;5071443;28;20172;-75
2023/03/17 07:43:00;;;;;;;5.73;3.47;;;14.50;99.90;;;;;;5053604;28;20280;-74
2023/03/17 07:45:26;;;;;;;6.80;3.40;;;15.00;1.00;;;;;;5072143;28;20669;-74
2023/03/17 07:47:52;;;;;;;6.87;3.10;;;15.50;91.80;;;;;;5072648;28;20650;-74
2023/03/17 07:50:19;;;;;;;11.27;4.10;;;16.00;90.80;;;;;;5072096;28;20260;-73
2023/03/17 07:52:45;;;;;;;8.43;3.17;;;16.60;90.10;;;;;;5070453;28;20196;-73
2023/03/17 07:55:11;;;;;;;6.00;3.55;;;16.50;88.70;;;;;;5071184;28;20624;-74
2023/03/17 07:57:37;;;;;;;7.45;3.78;;;16.70;88.70;;;;;;5072179;28;20213;-74
2023/03/17 08:00:08;;;;;;;6.70;3.92;;;16.80;87.60;;;;;;5053466;28;20169;-76
2023/03/17 08:02:39;;;;;;;9.80;3.35;;;16.80;87.90;;;;;;5069642;28;20207;-74
2023/03/17 08:05:06;;;;;;;9.43;3.72;;;16.80;87.60;;;;;;5071332;28;20314;-74
2023/03/17 08:07:33;;;;;;;8.52;4.10;;;16.90;87.50;;;;;;5071867;28;20164;-75
2023/03/17 08:09:58;;;;;;;4.10;3.17;;;17.00;87.50;;;;;;5071682;28;20189;-74
2023/03/17 08:12:24;;;;;;;4.57;3.25;;;17.10;86.40;;;;;;5054270;28;20165;-74
2023/03/17 08:14:51;;;;;;;7.45;4.18;;;16.80;87.00;;;;;;5071104;28;20235;-75
2023/03/17 08:17:17;;;;;;;7.95;3.70;;;16.80;87.50;;;;;;5071999;28;20172;-74
2023/03/17 08:19:42;;;;;;;6.60;3.70;;;17.00;87.80;;;;;;5053405;28;20168;-74
2023/03/17 08:22:09;;;;;;;7.77;3.87;;;16.80;87.50;;;;;;5054398;28;20172;-74
2023/03/17 08:24:35;;;;;;;8.73;4.00;;;16.50;88.80;;;;;;5072372;28;20270;-74
2023/03/17 08:27:01;;;;;;;8.33;4.07;;;16.00;90.10;;;;;;5071746;28;20215;-74
2023/03/17 08:29:28;;;;;;;5.47;3.40;;;15.70;90.60;;;;;;5072025;28;20240;-74
2023/03/17 08:31:54;;;;;;;8.50;3.40;;;15.50;73.40;;;;;;5072111;28;20704;-74
2023/03/17 08:34:20;;;;;;;9.80;4.07;;;15.30;1.00;;;;;;5071639;28;20180;-74
2023/03/17 08:36:49;;;;;;;8.80;4.33;;;15.20;18.50;;;;;;5073747;28;20204;-74
2023/03/17 08:39:16;;;;;;;8.83;4.30;;;15.00;1.00;;;;;;5075899;28;20168;-74
2023/03/17 08:41:42;;;;;;;11.70;4.40;;;14.90;99.90;;;;;;5076478;28;20168;-74
2023/03/17 08:44:07;;;;;;;7.03;4.10;;;14.90;99.90;;;;;;5076345;28;20231;-75
2023/03/17 08:46:34;;;;;;;9.37;4.03;;;14.80;30.60;;;;;;5076229;28;20196;-74
2023/03/17 08:49:00;;;;;;;6.10;4.07;;;14.80;10.00;;;;;;5077549;28;20184;-74
2023/03/17 08:51:29;;;;;;;5.77;3.90;;;14.80;99.90;;;;;;5077603;28;20260;-74
2023/03/17 08:53:57;;;;;;;6.97;4.30;;;14.70;1.00;;;;;;5075202;28;20237;-73
2023/03/17 08:56:23;;;;;;;5.70;3.70;;;14.70;1.00;;;;;;5075173;28;20184;-72
2023/03/17 08:58:49;;;;;;;7.97;3.40;;;14.90;99.90;;;;;;5074739;28;20546;-73
2023/03/17 09:01:15;;;;;;;10.17;3.97;;;14.90;99.90;;;;;;5075424;28;20859;-74
2023/03/17 09:03:42;;;;;;;6.23;3.70;;;14.90;1.00;;;;;;5075486;28;20204;-73
2023/03/17 09:06:10;;;;;;;5.77;3.50;;;14.80;99.90;;;;;;5075624;28;20165;-72
2023/03/17 09:08:38;;;;;;;5.80;3.33;;;14.70;1.00;;;;;;5075313;28;20565;-73
2023/03/17 09:11:05;;;;;;;6.50;3.57;;;14.70;1.00;;;;;;5075266;28;20660;-73
2023/03/17 09:13:36;;;;;;;8.53;3.97;;;14.80;1.00;;;;;;5056913;28;20187;-72
2023/03/17 09:16:02;;;;;;;6.33;4.13;;;14.70;1.00;;;;;;5074876;28;20220;-74
2023/03/17 09:18:30;;;;;;;5.53;3.83;;;14.80;99.90;;;;;;5075285;28;20188;-73
2023/03/17 09:20:56;;;;;;;6.97;3.70;;;14.90;1.00;;;;;;5075002;28;20259;-72
2023/03/17 09:23:22;;;;;;;5.40;3.37;;;15.00;99.90;;;;;;5074859;28;20209;-73
2023/03/17 09:25:48;;;;;;;5.97;3.43;;;15.00;1.00;;;;;;5075592;28;20179;-72
2023/03/17 09:28:17;;;;;;;6.20;4.53;;;14.90;1.00;;;;;;5075176;28;20160;-72
2023/03/17 09:30:43;;;;;;;6.10;3.90;;;14.80;1.00;;;;;;5075203;28;20282;-73
2023/03/17 09:33:10;;;;;;;8.23;4.70;;;14.90;1.00;;;;;;5074429;28;20193;-73
2023/03/17 09:35:36;;;;;;;11.43;5.10;;;15.10;99.90;;;;;;5075282;28;20173;-73
2023/03/17 09:38:02;;;;;;;7.23;4.40;;;15.20;99.90;;;;;;5075068;28;20181;-73
2023/03/17 09:41:02;;;;;;;8.20;4.80;;;15.20;1.00;;;;;;5074548;28;20689;-74
2023/03/17 09:43:35;;;;;;;9.63;4.30;;;15.30;1.00;;;;;;5006376;28;20238;-74
2023/03/17 09:46:24;;;;;;;9.70;4.87;;;15.30;1.00;;;;;;5074875;28;20256;-73
2023/03/17 09:49:07;;;;;;;9.40;4.40;;;15.40;1.00;;;;;;5055895;28;20176;-75
2023/03/17 09:51:34;;;;;;;9.67;4.90;;;15.50;99.90;;;;;;5057222;28;20191;-74
2023/03/17 09:54:23;;;;;;;4.33;3.47;;;15.60;1.00;;;;;;5074850;28;20180;-75
2023/03/17 09:56:57;;;;;;;10.13;3.77;;;15.70;90.10;;;;;;5074920;28;20203;-74
2023/03/17 09:59:53;;;;;;;5.13;3.73;;;16.00;99.90;;;;;;5074450;28;20533;-75
2023/03/17 10:02:26;;;;;;;9.93;4.03;;;16.30;1.00;;;;;;5074270;28;20192;-74
2023/03/17 10:04:52;;;;;;;4.83;3.67;;;16.10;1.00;;;;;;5055981;28;20230;-75
2023/03/17 10:07:27;;;;;;;4.27;3.17;;;16.10;89.40;;;;;;5073550;28;20691;-74
2023/03/17 10:10:02;;;;;;;6.20;3.70;;;16.00;1.00;;;;;;5074504;28;20172;-74
2023/03/17 10:12:57;;;;;;;9.70;4.10;;;16.30;1.00;;;;;;5074574;28;20164;-74
2023/03/17 10:15:41;;;;;;;12.38;4.20;;;17.10;92.10;;;;;;5073793;28;20224;-74
2023/03/17 10:18:13;;;;;;;7.47;4.07;;;18.30;91.20;;;;;;5074129;28;20175;-74
2023/03/17 10:21:01;;;;;;;8.32;4.25;;;19.00;89.10;;;;;;5074308;28;20200;-75
2023/03/17 10:23:30;;;;;;;9.20;4.00;;;19.80;85.30;;;;;;5073695;28;20192;-75
2023/03/17 10:26:06;;;;;;;8.35;3.97;;;20.30;82.60;;;;;;5073326;28;20177;-75
2023/03/17 10:28:37;;;;;;;6.35;3.60;;;20.30;81.30;;;;;;5074403;28;20207;-74
2023/03/17 10:31:17;;;;;;;9.30;4.78;;;20.60;81.00;;;;;;5073558;28;20222;-75
2023/03/17 10:33:47;;;;;;;6.68;4.05;;;20.90;79.10;;;;;;5055985;28;20176;-75
2023/03/17 10:36:30;;;;;;;4.75;3.92;;;20.90;79.50;;;;;;5074439;28;20173;-76
2023/03/17 10:38:56;;;;;;;7.30;4.18;;;21.60;78.40;;;;;;5074031;28;20247;-76
2023/03/17 10:41:28;;;;;;;5.57;3.80;;;21.90;75.50;;;;;;5074283;28;20548;-76
2023/03/17 10:43:56;;;;;;;7.55;3.92;;;22.40;75.00;;;;;;5073996;28;20725;-78
2023/03/17 10:46:24;;;;;;;6.28;4.05;;;22.00;74.50;;;;;;5073734;28;20200;-76
2023/03/17 10:49:07;;;;;;;7.90;4.80;;;22.50;73.80;;;;;;5073646;28;20260;-76
2023/03/17 10:51:35;;;;;;;9.07;3.88;;;23.40;71.20;;;;;;5055837;28;20168;-76
2023/03/17 10:54:14;;;;;;;5.60;3.70;;;23.00;70.30;;;;;;5073413;28;20659;-77
2023/03/17 10:56:41;;;;;;;8.77;3.70;;;22.70;69.60;;;;;;5073674;28;20203;-77
2023/03/17 10:59:36;;;;;;;12.55;4.85;;;23.10;70.20;;;;;;5072656;28;20180;-76
2023/03/17 11:02:24;;;;;;;6.00;3.33;;;22.90;70.30;;;;;;5073621;28;20223;-76
2023/03/17 11:04:54;;;;;;;5.82;3.55;;;22.40;70.60;;;;;;5073452;28;20208;-75
2023/03/17 11:07:37;;;;;;;4.60;3.28;;;21.80;72.80;;;;;;5073980;28;20161;-74
2023/03/17 11:10:13;;;;;;;6.78;3.63;;;21.90;73.90;;;;;;5056809;28;20168;-75
2023/03/17 11:12:40;;;;;;;4.53;3.17;;;21.90;73.20;;;;;;5073789;28;20741;-76
2023/03/17 11:15:16;;;;;;;5.47;3.40;;;22.10;72.70;;;;;;5072908;28;20626;-76
2023/03/17 11:17:48;;;;;;;4.88;3.50;;;22.80;72.60;;;;;;5073042;28;20168;-76
2023/03/17 11:20:23;;;;;;;7.45;3.78;;;23.20;70.20;;;;;;5072991;28;20164;-75
2023/03/17 11:23:02;;;;;;;6.78;3.80;;;23.10;69.90;;;;;;5072848;28;20164;-76
2023/03/17 11:25:29;;;;;;;5.88;2.95;;;23.20;70.70;;;;;;5073249;28;20208;-76
2023/03/17 11:27:55;;;;;;;5.25;3.15;;;23.10;70.30;;;;;;5072779;28;20172;-75
2023/03/17 11:30:35;;;;;;;6.38;3.38;;;23.30;70.70;;;;;;5072947;28;20715;-76
2023/03/17 11:33:51;;;;;;;7.07;3.30;;;23.40;69.50;;;;;;5091598;28;20175;-76
2023/03/17 11:36:59;;;;;;;10.13;3.70;;;23.60;69.80;;;;;;4994599;28;20608;-76
2023/03/17 11:39:27;;;;;;;5.45;4.18;;;23.30;69.90;;;;;;4952846;29;20711;-76
2023/03/17 11:41:56;;;;;;;5.28;3.65;;;23.30;68.80;;;;;;4985117;28;20669;-75
2023/03/17 11:44:51;;;;;;;4.68;3.58;;;22.30;71.80;;;;;;4991494;28;20223;-75
2023/03/17 11:47:30;;;;;;;14.40;5.45;;;22.60;72.00;;;;;;4991208;28;20171;-76
2023/03/17 11:50:07;;;;;;;4.90;3.33;;;22.40;72.00;;;;;;4991292;28;20214;-77
2023/03/17 11:52:56;;;;;;;6.82;3.53;;;22.30;71.10;;;;;;4990248;28;20257;-76
2023/03/17 11:55:43;;;;;;;6.40;3.13;;;22.50;71.50;;;;;;4990765;28;20171;-75
2023/03/17 11:58:42;;;;;;;7.20;3.35;;;21.90;73.20;;;;;;4990901;28;20195;-76
2023/03/17 12:01:15;;;;;;;5.88;3.20;;;21.70;73.70;;;;;;4983345;28;20211;-75
2023/03/17 12:03:57;;;;;;;5.20;3.05;;;21.40;74.00;;;;;;4991385;28;20253;-75
2023/03/17 12:06:35;;;;;;;5.88;2.97;;;21.20;75.20;;;;;;4991655;28;20167;-76
2023/03/17 12:09:16;;;;;;;4.28;2.97;;;21.20;75.70;;;;;;4995998;28;20265;-77
2023/03/17 12:11:44;;;;;;;7.18;3.00;;;21.40;75.00;;;;;;5091286;28;20225;-75
2023/03/17 12:14:48;;;;;;;4.90;3.50;;;21.60;75.00;;;;;;5092077;28;20172;-75
2023/03/17 12:17:47;;;;;;;5.28;3.80;;;22.10;74.90;;;;;;5049337;28;20193;-77
2023/03/17 12:20:20;;;;;;;6.95;3.08;;;22.50;73.40;;;;;;5023858;28;20185;-76
2023/03/17 12:22:54;;;;;;;6.20;3.03;;;22.50;72.30;;;;;;5023466;28;20166;-75
2023/03/17 12:25:39;;;;;;;3.55;3.05;;;22.40;72.70;;;;;;5029660;28;20214;-78
2023/03/17 12:28:16;;;;;;;10.20;5.57;;;22.10;73.30;;;;;;5034875;28;20173;-75
2023/03/17 12:31:08;;;;;;;5.57;3.10;;;21.60;75.20;;;;;;5044299;28;20174;-75
2023/03/17 12:33:52;;;;;;;4.38;3.10;;;21.30;76.50;;;;;;5029501;28;20166;-76
2023/03/17 12:36:19;;;;;;;3.45;2.63;;;21.10;76.80;;;;;;5026484;28;20217;-76
2023/03/17 12:38:48;;;;;;;4.72;3.00;;;20.60;78.00;;;;;;5020497;28;20170;-76
2023/03/17 12:41:40;;;;;;;3.10;2.80;;;20.40;79.10;;;;;;5028485;28;20633;-76
2023/03/17 12:44:20;;;;;;;2.92;2.70;;;20.30;79.60;;;;;;5025975;28;20245;-76
2023/03/17 12:47:06;;;;;;;3.53;3.03;;;20.50;79.90;;;;;;5026852;28;20649;-76
2023/03/17 12:49:50;;;;;;;4.43;2.67;;;20.50;80.30;;;;;;5033673;28;21210;-76
2023/03/17 12:52:36;;;;;;;5.75;2.95;;;20.10;81.00;;;;;;5026063;28;20196;-76
2023/03/17 12:55:08;;;;;;;4.45;2.70;;;20.40;80.70;;;;;;5016196;28;20563;-75
2023/03/17 12:58:02;;;;;;;5.47;3.28;;;20.50;80.60;;;;;;5024585;28;20707;-73
2023/03/17 13:00:33;;;;;;;7.70;3.47;;;20.40;80.50;;;;;;5033440;28;20197;-75
2023/03/17 13:03:26;;;;;;;5.97;3.30;;;20.40;81.10;;;;;;5051753;28;20205;-76
2023/03/17 13:05:58;;;;;;;4.30;2.88;;;20.30;81.40;;;;;;5051362;28;20177;-76